createdAt,value
2022-10-24T00:01:19.024Z,0.70
2022-10-24T00:03:46.589Z,1.35
2022-10-24T00:06:13.936Z,1.35
2022-10-24T00:08:43.409Z,1.30
2022-10-24T00:11:23.627Z,1.58
2022-10-24T00:13:51.465Z,1.00
2022-10-24T00:16:18.975Z,1.13
2022-10-24T00:18:46.384Z,1.27
2022-10-24T00:21:13.716Z,1.42
2022-10-24T00:23:40.687Z,1.00
2022-10-24T00:26:07.905Z,0.90
2022-10-24T00:28:37.195Z,1.08
2022-10-24T00:31:06.857Z,1.13
2022-10-24T00:33:33.964Z,2.22
2022-10-24T00:36:00.853Z,1.45
2022-10-24T00:38:27.635Z,1.35
2022-10-24T00:40:54.443Z,0.95
2022-10-24T00:43:25.369Z,1.55
2022-10-24T00:46:00.915Z,1.23
2022-10-24T00:48:35.494Z,1.05
2022-10-24T00:51:27.246Z,0.95
2022-10-24T00:54:09.101Z,0.80
2022-10-24T00:56:42.473Z,1.17
2022-10-24T00:59:11.450Z,1.40
2022-10-24T01:01:39.009Z,1.13
2022-10-24T01:04:07.724Z,1.48
2022-10-24T01:07:03.852Z,1.23
2022-10-24T01:10:07.533Z,1.58
2022-10-24T01:15:51.550Z,1.55
2022-10-24T01:18:47.325Z,1.42
2022-10-24T01:21:52.492Z,1.35
2022-10-24T01:25:04.182Z,1.23
2022-10-24T01:28:02.042Z,1.02
2022-10-24T01:30:33.002Z,1.00
2022-10-24T01:33:11.064Z,0.73
2022-10-24T01:35:43.721Z,1.42
2022-10-24T01:38:17.302Z,1.00
2022-10-24T01:41:01.466Z,1.00
2022-10-24T01:43:41.010Z,0.98
2022-10-24T01:46:16.838Z,0.80
2022-10-24T01:48:50.681Z,0.73
2022-10-24T01:51:21.592Z,0.90
2022-10-24T01:53:49.452Z,1.00
2022-10-24T01:56:16.343Z,1.10
2022-10-24T01:58:43.245Z,0.98
2022-10-24T02:01:19.671Z,0.82
2022-10-24T02:03:57.306Z,1.13
2022-10-24T02:06:35.083Z,1.17
2022-10-24T02:09:08.302Z,0.98
2022-10-24T02:11:36.270Z,1.85
2022-10-24T02:14:28.787Z,0.90
2022-10-24T02:16:55.603Z,1.42
2022-10-24T02:19:22.649Z,0.90
2022-10-24T02:22:15.919Z,1.33
2022-10-24T02:24:54.701Z,2.13
2022-10-24T02:27:29.080Z,1.00
2022-10-24T02:30:09.846Z,1.05
2022-10-24T02:32:42.556Z,1.15
2022-10-24T02:35:11.902Z,0.90
2022-10-24T02:37:48.141Z,1.27
2022-10-24T02:40:18.125Z,0.85
2022-10-24T02:42:47.985Z,1.02
2022-10-24T02:45:15.903Z,1.25
2022-10-24T02:47:45.413Z,1.58
2022-10-24T02:50:13.520Z,1.33
2022-10-24T02:52:42.816Z,0.60
2022-10-24T02:55:11.741Z,1.65
2022-10-24T02:57:39.479Z,0.93
2022-10-24T03:00:10.101Z,1.08
2022-10-24T03:02:36.917Z,0.90
2022-10-24T03:05:04.241Z,0.68
2022-10-24T03:10:17.981Z,1.00
2022-10-24T03:12:45.296Z,0.90
2022-10-24T03:15:12.853Z,0.88
2022-10-24T03:17:39.686Z,0.95
2022-10-24T03:20:07.381Z,1.50
2022-10-24T03:22:34.229Z,1.23
2022-10-24T03:25:03.329Z,1.60
2022-10-24T03:27:30.572Z,1.30
2022-10-24T03:29:57.572Z,1.38
2022-10-24T03:32:24.380Z,1.63
2022-10-24T03:34:51.257Z,1.58
2022-10-24T03:37:19.429Z,1.13
2022-10-24T03:39:46.302Z,1.45
2022-10-24T03:42:13.419Z,1.67
2022-10-24T03:44:40.935Z,1.13
2022-10-24T03:47:07.725Z,1.38
2022-10-24T03:49:34.677Z,1.38
2022-10-24T03:52:01.536Z,1.65
2022-10-24T03:54:28.359Z,1.52
2022-10-24T03:56:55.598Z,1.60
2022-10-24T03:59:22.634Z,0.70
2022-10-24T04:01:49.822Z,2.13
2022-10-24T04:04:16.791Z,1.75
2022-10-24T04:06:43.554Z,1.27
2022-10-24T04:09:10.444Z,1.30
2022-10-24T04:11:37.278Z,2.38
2022-10-24T04:14:05.579Z,1.48
2022-10-24T04:16:34.907Z,1.50
2022-10-24T04:19:02.583Z,2.33
2022-10-24T04:21:29.815Z,1.20
2022-10-24T04:23:57.120Z,2.53
2022-10-24T04:26:24.487Z,2.60
2022-10-24T04:28:51.296Z,1.95
2022-10-24T04:31:22.435Z,1.23
2022-10-24T04:33:50.635Z,2.65
2022-10-24T04:36:17.476Z,1.65
2022-10-24T04:38:44.317Z,1.45
2022-10-24T04:41:12.234Z,1.25
2022-10-24T04:43:39.910Z,1.80
2022-10-24T04:46:07.147Z,1.38
2022-10-24T04:48:35.135Z,1.33
2022-10-24T04:51:01.980Z,1.23
2022-10-24T04:53:28.804Z,1.40
2022-10-24T04:55:55.671Z,2.17
2022-10-24T04:58:22.457Z,1.27
2022-10-24T05:00:50.459Z,1.02
2022-10-24T05:03:18.640Z,1.40
2022-10-24T05:05:46.506Z,1.10
2022-10-24T05:08:13.443Z,1.15
2022-10-24T05:10:40.293Z,1.60
2022-10-24T05:13:07.685Z,1.02
2022-10-24T05:15:34.507Z,1.15
2022-10-24T05:18:01.468Z,1.77
2022-10-24T05:20:28.624Z,1.35
2022-10-24T05:22:55.984Z,1.15
2022-10-24T05:25:23.561Z,1.30
2022-10-24T05:27:50.401Z,1.42
2022-10-24T05:30:17.261Z,1.33
2022-10-24T05:32:44.737Z,1.20
2022-10-24T05:35:12.011Z,1.38
2022-10-24T05:37:39.286Z,1.20
2022-10-24T05:40:09.714Z,1.23
2022-10-24T05:42:37.966Z,0.70
2022-10-24T05:45:07.481Z,1.15
2022-10-24T05:47:34.541Z,1.60
2022-10-24T05:50:01.459Z,1.50
2022-10-24T05:52:28.372Z,1.10
2022-10-24T05:55:06.378Z,1.40
2022-10-24T05:57:34.673Z,0.80
2022-10-24T06:00:01.592Z,1.60
2022-10-24T06:02:28.545Z,2.03
2022-10-24T06:04:57.153Z,1.60
2022-10-24T06:07:24.005Z,1.70
2022-10-24T06:09:51.391Z,1.95
2022-10-24T06:12:18.235Z,1.88
2022-10-24T06:14:45.104Z,1.92
2022-10-24T06:17:12.188Z,2.35
2022-10-24T06:19:40.099Z,3.17
2022-10-24T06:22:08.653Z,2.20
2022-10-24T06:24:37.500Z,2.05
2022-10-24T06:27:06.101Z,1.95
2022-10-24T06:29:33.453Z,1.67
2022-10-24T06:32:00.341Z,3.03
2022-10-24T06:34:27.617Z,1.98
2022-10-24T06:36:57.336Z,1.63
2022-10-24T06:39:24.273Z,1.92
2022-10-24T06:41:51.083Z,1.80
2022-10-24T06:44:17.879Z,1.35
2022-10-24T06:46:45.088Z,1.10
2022-10-24T06:49:13.326Z,1.73
2022-10-24T06:51:41.195Z,1.65
2022-10-24T06:54:08.028Z,1.60
2022-10-24T06:56:35.023Z,2.60
2022-10-24T06:59:01.869Z,1.73
2022-10-24T07:01:28.936Z,1.13
2022-10-24T07:03:55.806Z,1.20
2022-10-24T07:06:27.055Z,1.98
2022-10-24T07:08:56.837Z,1.55
2022-10-24T07:11:24.058Z,1.00
2022-10-24T07:13:50.928Z,2.05
2022-10-24T07:16:18.223Z,1.13
2022-10-24T07:18:45.597Z,1.55
2022-10-24T07:21:20.615Z,1.45
2022-10-24T07:23:47.552Z,1.42
2022-10-24T07:26:16.607Z,1.00
2022-10-24T07:28:46.760Z,2.80
2022-10-24T07:31:17.871Z,4.47
2022-10-24T07:33:44.785Z,1.63
2022-10-24T07:36:20.041Z,1.52
2022-10-24T07:38:52.356Z,1.83
2022-10-24T07:41:19.302Z,4.18
2022-10-24T07:43:46.518Z,4.15
2022-10-24T07:46:16.463Z,5.50
2022-10-24T07:48:43.522Z,4.05
2022-10-24T07:51:14.163Z,2.58
2022-10-24T07:53:42.770Z,2.42
2022-10-24T07:56:17.270Z,3.33
2022-10-24T07:58:45.864Z,2.63
2022-10-24T08:01:21.318Z,2.05
2022-10-24T08:03:49.028Z,2.03
2022-10-24T08:06:26.640Z,2.17
2022-10-24T08:08:53.454Z,1.00
2022-10-24T08:11:24.087Z,1.13
2022-10-24T08:13:53.290Z,1.17
2022-10-24T08:16:23.706Z,1.02
2022-10-24T08:18:52.608Z,1.48
2022-10-24T08:21:21.797Z,1.00
2022-10-24T08:23:52.598Z,0.52
2022-10-24T08:26:23.431Z,1.10
2022-10-24T08:28:50.738Z,0.90
2022-10-24T08:31:21.363Z,1.08
2022-10-24T08:33:51.350Z,1.33
2022-10-24T08:36:34.120Z,1.13
2022-10-24T08:39:01.869Z,0.93
2022-10-24T08:41:37.822Z,1.10
2022-10-24T08:44:21.457Z,1.83
2022-10-24T08:47:25.654Z,1.38
2022-10-24T08:50:06.273Z,1.20
2022-10-24T08:52:44.277Z,1.48
2022-10-24T08:55:44.315Z,1.77
2022-10-24T08:58:13.381Z,1.60
2022-10-24T09:00:45.913Z,1.40
2022-10-24T09:03:50.869Z,1.30
2022-10-24T09:06:24.624Z,1.10
2022-10-24T09:08:58.437Z,0.98
2022-10-24T09:11:31.907Z,1.85
2022-10-24T09:14:02.769Z,1.65
2022-10-24T09:16:29.673Z,1.23
2022-10-24T09:18:57.893Z,1.20
2022-10-24T09:21:24.721Z,0.70
2022-10-24T09:23:52.268Z,1.08
2022-10-24T09:26:29.229Z,2.72
2022-10-24T09:28:57.199Z,1.90
2022-10-24T09:31:26.673Z,1.08
2022-10-24T09:33:54.352Z,1.73
2022-10-24T09:36:25.131Z,0.90
2022-10-24T09:38:52.038Z,1.17
2022-10-24T09:41:28.347Z,1.13
2022-10-24T09:44:01.004Z,0.90
2022-10-24T09:46:48.094Z,1.13
2022-10-24T09:49:22.645Z,1.80
2022-10-24T09:52:17.493Z,1.10
2022-10-24T09:54:45.322Z,1.73
2022-10-24T09:57:12.043Z,1.60
2022-10-24T09:59:48.758Z,2.28
2022-10-24T10:02:28.568Z,3.70
2022-10-24T10:05:04.488Z,3.28
2022-10-24T10:07:38.009Z,3.50
2022-10-24T10:10:35.201Z,3.45
2022-10-24T10:13:15.558Z,2.97
2022-10-24T10:16:09.939Z,1.50
2022-10-24T10:18:38.445Z,1.15
2022-10-24T10:21:21.818Z,1.30
2022-10-24T10:23:55.180Z,0.95
2022-10-24T10:26:46.597Z,1.02
2022-10-24T10:29:19.228Z,1.17
2022-10-24T10:31:50.695Z,1.58
2022-10-24T10:34:21.957Z,0.98
2022-10-24T10:37:13.375Z,1.25
2022-10-24T10:40:31.816Z,1.20
2022-10-24T10:43:31.226Z,1.63
2022-10-24T10:46:47.985Z,1.23
2022-10-24T10:49:31.945Z,1.25
2022-10-24T10:52:20.153Z,1.40
2022-10-24T10:55:08.987Z,2.13
2022-10-24T10:58:25.776Z,2.20
2022-10-24T11:01:06.798Z,1.63
2022-10-24T11:04:06.742Z,2.05
2022-10-24T11:06:54.286Z,1.17
2022-10-24T11:09:30.229Z,0.90
2022-10-24T11:12:18.399Z,1.67
2022-10-24T11:14:55.497Z,1.25
2022-10-24T11:17:28.405Z,0.80
2022-10-24T11:20:21.589Z,1.23
2022-10-24T11:22:55.938Z,0.63
2022-10-24T11:25:35.433Z,0.70
2022-10-24T11:28:17.481Z,1.00
2022-10-24T11:31:13.861Z,1.40
2022-10-24T11:33:56.957Z,1.20
2022-10-24T11:36:35.379Z,1.00
2022-10-24T11:39:26.123Z,0.82
2022-10-24T11:42:12.922Z,2.67
2022-10-24T11:45:05.596Z,2.20
2022-10-24T11:47:46.657Z,2.53
2022-10-24T11:50:36.304Z,2.28
2022-10-24T11:53:14.972Z,1.63
2022-10-24T11:55:47.738Z,1.02
2022-10-24T11:58:18.976Z,0.80
2022-10-24T12:00:51.857Z,0.60
2022-10-24T12:04:02.927Z,1.95
2022-10-24T12:06:48.136Z,2.55
2022-10-24T12:09:36.087Z,1.50
2022-10-24T12:13:06.121Z,1.08
2022-10-24T12:16:31.737Z,1.35
2022-10-24T12:19:11.895Z,2.65
2022-10-24T12:21:46.890Z,2.13
2022-10-24T12:24:33.126Z,2.13
2022-10-24T12:27:07.021Z,1.80
2022-10-24T12:29:36.445Z,2.35
2022-10-24T12:32:36.457Z,1.63
2022-10-24T12:35:31.515Z,1.58
2022-10-24T12:37:59.570Z,1.67
2022-10-24T12:40:58.713Z,1.33
2022-10-24T12:43:33.870Z,1.45
2022-10-24T12:46:23.549Z,0.80
2022-10-24T12:48:59.364Z,0.90
2022-10-24T12:51:37.872Z,1.45
2022-10-24T12:54:14.593Z,1.20
2022-10-24T12:56:50.615Z,0.88
2022-10-24T12:59:21.657Z,1.10
2022-10-24T13:01:51.467Z,2.05
2022-10-24T13:08:16.012Z,1.67
2022-10-24T13:11:10.109Z,1.42
2022-10-24T13:13:52.582Z,1.25
2022-10-24T13:16:42.528Z,1.58
2022-10-24T13:19:17.123Z,1.73
2022-10-24T13:21:51.870Z,2.60
2022-10-24T13:24:20.097Z,4.18
2022-10-24T13:26:53.665Z,5.85
2022-10-24T13:29:41.333Z,3.30
2022-10-24T13:32:08.016Z,2.50
2022-10-24T13:34:50.623Z,2.03
2022-10-24T13:37:36.626Z,2.42
2022-10-24T13:40:11.148Z,3.17
2022-10-24T13:42:51.902Z,2.35
2022-10-24T13:45:47.289Z,1.85
2022-10-24T13:48:23.804Z,2.00
2022-10-24T13:51:32.618Z,2.03
2022-10-24T13:54:07.215Z,1.60
2022-10-24T13:56:40.128Z,0.90
2022-10-24T13:59:31.508Z,0.80
2022-10-24T14:02:03.641Z,0.80
2022-10-24T14:04:31.017Z,1.00
2022-10-24T14:07:03.890Z,1.63
2022-10-24T14:09:43.272Z,1.02
2022-10-24T14:12:22.077Z,1.52
2022-10-24T14:14:51.158Z,0.70
2022-10-24T14:17:22.979Z,2.05
2022-10-24T14:20:11.480Z,2.70
2022-10-24T14:22:41.696Z,1.75
2022-10-24T14:25:36.232Z,1.20
2022-10-24T14:28:16.599Z,1.30
2022-10-24T14:30:58.733Z,1.25
2022-10-24T14:33:42.604Z,1.80
2022-10-24T14:36:10.258Z,1.70
2022-10-24T14:38:37.545Z,1.75
2022-10-24T14:41:09.661Z,1.58
2022-10-24T14:43:42.180Z,1.27
2022-10-24T14:46:12.353Z,1.23
2022-10-24T14:48:43.420Z,1.80
2022-10-24T14:51:39.021Z,2.22
2022-10-24T14:54:22.232Z,1.65
2022-10-24T14:56:50.376Z,2.40
2022-10-24T14:59:29.478Z,1.48
2022-10-24T15:02:03.856Z,1.35
2022-10-24T15:04:45.838Z,1.75
2022-10-24T15:07:20.923Z,1.45
2022-10-24T15:09:59.372Z,2.45
2022-10-24T15:12:38.129Z,2.13
2022-10-24T15:15:25.914Z,1.88
2022-10-24T15:17:59.660Z,2.72
2022-10-24T15:20:28.661Z,1.50
2022-10-24T15:22:58.940Z,1.77
2022-10-24T15:25:32.923Z,2.80
2022-10-24T15:28:01.544Z,1.42
2022-10-24T15:30:37.483Z,1.52
2022-10-24T15:33:06.576Z,2.00
2022-10-24T15:35:41.053Z,1.20
2022-10-24T15:38:18.708Z,1.55
2022-10-24T15:40:49.015Z,1.10
2022-10-24T15:43:19.997Z,2.22
2022-10-24T15:45:47.046Z,5.38
2022-10-24T15:48:13.789Z,4.80
2022-10-24T15:50:45.650Z,2.95
2022-10-24T15:53:22.151Z,1.77
2022-10-24T15:55:58.361Z,1.80
2022-10-24T15:58:25.170Z,1.83
2022-10-24T16:00:52.081Z,1.75
2022-10-24T16:03:23.517Z,1.92
2022-10-24T16:05:55.003Z,1.70
2022-10-24T16:08:23.429Z,2.17
2022-10-24T16:10:52.696Z,2.35
2022-10-24T16:13:22.247Z,2.88
2022-10-24T16:15:50.185Z,2.72
2022-10-24T16:18:17.533Z,2.35
2022-10-24T16:20:44.306Z,1.65
2022-10-24T16:23:16.640Z,1.58
2022-10-24T16:25:43.938Z,1.73
2022-10-24T16:28:11.220Z,2.17
2022-10-24T16:30:40.651Z,2.45
2022-10-24T16:33:08.305Z,1.67
2022-10-24T16:35:37.921Z,2.22
2022-10-24T16:38:06.965Z,2.60
2022-10-24T16:40:43.143Z,1.88
2022-10-24T16:43:13.052Z,3.80
2022-10-24T16:45:40.514Z,2.58
2022-10-24T16:48:07.385Z,2.55
2022-10-24T16:50:34.190Z,2.70
2022-10-24T16:53:04.766Z,1.77
2022-10-24T16:55:32.360Z,1.67
2022-10-24T16:57:59.958Z,1.50
2022-10-24T17:00:27.445Z,1.23
2022-10-24T17:02:56.172Z,2.30
2022-10-24T17:05:26.801Z,2.45
2022-10-24T17:07:54.081Z,2.60
2022-10-24T17:10:23.861Z,2.05
2022-10-24T17:12:52.174Z,2.13
2022-10-24T17:15:22.210Z,2.42
2022-10-24T17:17:50.294Z,2.08
2022-10-24T17:20:17.831Z,3.10
2022-10-24T17:22:46.737Z,2.88
2022-10-24T17:25:25.261Z,2.75
2022-10-24T17:27:53.226Z,2.28
2022-10-24T17:30:32.254Z,2.05
2022-10-24T17:32:59.561Z,2.13
2022-10-24T17:35:27.446Z,2.10
2022-10-24T17:38:38.713Z,2.53
2022-10-24T17:41:22.717Z,2.28
2022-10-24T17:43:49.878Z,2.53
2022-10-24T17:46:17.124Z,1.83
2022-10-24T17:48:43.895Z,1.70
2022-10-24T17:51:15.088Z,2.15
2022-10-24T17:53:41.918Z,1.90
2022-10-24T17:56:10.170Z,2.28
2022-10-24T17:58:36.925Z,2.13
2022-10-24T18:01:04.029Z,1.55
2022-10-24T18:03:30.943Z,2.05
2022-10-24T18:06:03.544Z,2.05
2022-10-24T18:08:30.699Z,1.75
2022-10-24T18:11:03.160Z,2.40
2022-10-24T18:13:30.043Z,2.15
2022-10-24T18:15:56.738Z,1.95
2022-10-24T18:18:23.710Z,2.70
2022-10-24T18:20:50.654Z,2.35
2022-10-24T18:23:17.449Z,2.10
2022-10-24T18:25:44.164Z,2.53
2022-10-24T18:28:11.033Z,2.35
2022-10-24T18:30:37.768Z,3.08
2022-10-24T18:33:04.645Z,2.38
2022-10-24T18:35:34.148Z,2.05
2022-10-24T18:38:02.138Z,2.65
2022-10-24T18:40:29.485Z,2.40
2022-10-24T18:43:05.206Z,2.65
2022-10-24T18:45:33.220Z,2.42
2022-10-24T18:48:00.344Z,2.17
2022-10-24T18:50:27.445Z,2.13
2022-10-24T18:53:10.809Z,2.40
2022-10-24T18:55:38.105Z,2.28
2022-10-24T18:58:04.985Z,2.20
2022-10-24T19:00:38.198Z,2.28
2022-10-24T19:03:29.565Z,2.60
2022-10-24T19:06:31.245Z,2.50
2022-10-24T19:08:58.141Z,2.88
2022-10-24T19:11:25.006Z,2.65
2022-10-24T19:13:51.971Z,2.83
2022-10-24T19:16:28.611Z,2.85
2022-10-24T19:19:00.269Z,3.45
2022-10-24T19:21:27.030Z,6.90
2022-10-24T19:23:54.081Z,6.53
2022-10-24T19:26:20.946Z,4.30
2022-10-24T19:28:47.729Z,3.55
2022-10-24T19:31:15.824Z,2.95
2022-10-24T19:33:43.137Z,3.15
2022-10-24T19:36:13.370Z,2.63
2022-10-24T19:38:43.751Z,2.92
2022-10-24T19:41:11.801Z,2.67
2022-10-24T19:43:38.665Z,3.00
2022-10-24T19:46:19.298Z,2.78
2022-10-24T19:48:53.133Z,3.55
2022-10-24T19:51:21.047Z,3.15
2022-10-24T19:53:49.755Z,3.30
2022-10-24T19:56:25.139Z,3.80
2022-10-24T19:58:53.762Z,1.60
2022-10-24T20:01:25.038Z,2.40
2022-10-24T20:03:52.420Z,3.67
2022-10-24T20:06:19.519Z,2.58
2022-10-24T20:08:48.065Z,1.85
2022-10-24T20:11:15.796Z,2.60
2022-10-24T20:13:43.390Z,2.95
2022-10-24T20:16:13.570Z,2.80
2022-10-24T20:18:43.446Z,3.17
2022-10-24T20:21:16.321Z,2.75
2022-10-24T20:23:43.114Z,1.80
2022-10-24T20:26:17.075Z,2.72
2022-10-24T20:28:47.161Z,2.47
2022-10-24T20:31:38.259Z,2.90
2022-10-24T20:34:11.158Z,2.63
2022-10-24T20:36:41.732Z,2.95
2022-10-24T20:39:09.175Z,2.55
2022-10-24T20:41:36.725Z,2.67
2022-10-24T20:44:07.015Z,3.15
2022-10-24T20:46:35.225Z,2.88
2022-10-24T20:49:02.214Z,3.00
2022-10-24T20:51:28.977Z,2.53
2022-10-24T20:53:55.802Z,2.85
2022-10-24T20:56:26.089Z,2.70
2022-10-24T20:58:55.238Z,2.25
2022-10-24T21:01:29.135Z,1.90
2022-10-24T21:03:58.245Z,1.70
2022-10-24T21:06:33.402Z,1.58
2022-10-24T21:09:06.290Z,1.73
2022-10-24T21:11:34.589Z,1.75
2022-10-24T21:14:08.134Z,1.25
2022-10-24T21:16:35.001Z,1.52
2022-10-24T21:19:02.538Z,1.45
2022-10-24T21:21:29.292Z,1.23
2022-10-24T21:24:02.453Z,1.67
2022-10-24T21:26:33.973Z,2.35
2022-10-24T21:29:08.979Z,2.92
2022-10-24T21:31:41.718Z,2.63
2022-10-24T21:34:08.451Z,2.17
2022-10-24T21:36:35.297Z,2.63
2022-10-24T21:39:02.030Z,2.40
2022-10-24T21:41:28.933Z,1.50
2022-10-24T21:43:55.799Z,1.90
2022-10-24T21:46:29.338Z,2.45
2022-10-24T21:48:57.207Z,2.50
2022-10-24T21:51:33.284Z,2.15
2022-10-24T21:54:16.882Z,1.65
2022-10-24T21:56:43.699Z,1.95
2022-10-24T21:59:17.276Z,2.08
2022-10-24T22:01:46.752Z,1.80
2022-10-24T22:04:14.873Z,1.55
2022-10-24T22:06:42.499Z,1.92
2022-10-24T22:09:17.292Z,1.83
2022-10-24T22:11:45.044Z,2.40
2022-10-24T22:14:15.472Z,3.20
2022-10-24T22:16:43.380Z,3.42
2022-10-24T22:19:12.520Z,3.97
2022-10-24T22:21:45.723Z,4.50
2022-10-24T22:24:23.952Z,3.38
2022-10-24T22:26:51.833Z,3.42
2022-10-24T22:29:23.577Z,2.58
2022-10-24T22:31:52.475Z,2.95
2022-10-24T22:34:25.266Z,2.70
2022-10-24T22:37:20.447Z,2.78
2022-10-24T22:39:47.546Z,3.45
2022-10-24T22:42:19.168Z,3.22
2022-10-24T22:44:48.745Z,2.30
2022-10-24T22:47:58.156Z,2.08
2022-10-24T22:50:53.365Z,2.45
2022-10-24T22:53:31.336Z,2.20
2022-10-24T22:56:19.925Z,2.35
2022-10-24T22:58:47.351Z,2.58
2022-10-24T23:01:37.859Z,1.55
2022-10-24T23:04:25.178Z,1.33
2022-10-24T23:07:09.763Z,1.52
2022-10-24T23:09:36.521Z,1.92
2022-10-24T23:12:15.020Z,1.10
2022-10-24T23:14:43.018Z,1.38
2022-10-24T23:17:14.037Z,1.40
2022-10-24T23:19:45.907Z,0.88
2022-10-24T23:22:32.910Z,1.27
2022-10-24T23:25:01.480Z,1.40
2022-10-24T23:27:39.296Z,1.55
2022-10-24T23:30:22.075Z,1.67
2022-10-24T23:32:51.028Z,1.10
2022-10-24T23:35:20.082Z,1.38
2022-10-24T23:37:49.944Z,1.48
2022-10-24T23:40:37.304Z,1.23
2022-10-24T23:43:04.932Z,1.63
2022-10-24T23:45:37.289Z,1.75
2022-10-24T23:48:30.157Z,1.33
2022-10-24T23:51:12.310Z,1.27
2022-10-24T23:53:51.435Z,1.25
2022-10-24T23:56:24.732Z,1.15
2022-10-24T23:58:52.440Z,1.02
